Time;durP1;ratioP1;P1;durP2;ratioP2;P2;SDS_P1;SDS_P2;PMS_P1;PMS_P2;Temp;Humidity;BMP_temperature;BMP_pressure;BME280_temperature;BME280_humidity;BME280_pressure;Samples;Min_cycle;Max_cycle;Signal;HPM_P1;HPM_P2
2021/09/06 00:00:46;;;;;;;7.63;3.80;;;;;;;7.57;61.21;99654.34;5091025;28;20036;-75
2021/09/06 00:03:12;;;;;;;6.93;4.10;;;;;;;7.55;61.34;99654.41;5057665;28;20486;-75
2021/09/06 00:05:37;;;;;;;5.60;4.28;;;;;;;7.49;61.66;99649.50;5057437;28;20047;-75
2021/09/06 00:08:04;;;;;;;5.30;4.30;;;;;;;7.41;61.79;99641.13;5090887;28;20044;-74
2021/09/06 00:10:32;;;;;;;5.40;4.15;;;;;;;7.45;62.14;99653.28;5057318;28;20078;-74
2021/09/06 00:12:59;;;;;;;5.03;4.53;;;;;;;7.43;61.96;99657.84;5090586;28;20395;-74
2021/09/06 00:15:25;;;;;;;4.63;4.13;;;;;;;7.31;62.07;99645.31;5057608;28;20055;-74
2021/09/06 00:17:51;;;;;;;4.97;4.18;;;;;;;7.33;62.00;99647.88;5057567;28;20126;-74
2021/09/06 00:20:17;;;;;;;5.97;3.90;;;;;;;7.27;62.31;99647.31;5090975;28;20544;-74
2021/09/06 00:22:43;;;;;;;4.45;4.03;;;;;;;7.31;62.07;99661.28;5073944;28;20411;-74
2021/09/06 00:25:09;;;;;;;5.35;4.00;;;;;;;7.32;62.25;99657.66;5086683;28;20158;-74
2021/09/06 00:27:35;;;;;;;5.43;4.68;;;;;;;7.36;62.19;99659.16;5070611;28;20049;-75
2021/09/06 00:30:08;;;;;;;7.38;4.40;;;;;;;7.38;62.05;99662.59;5073384;28;20098;-75
2021/09/06 00:32:34;;;;;;;5.95;4.85;;;;;;;7.42;62.12;99668.59;5057639;28;20136;-75
2021/09/06 00:35:00;;;;;;;5.80;5.20;;;;;;;7.46;62.40;99668.31;5041456;28;20155;-74
2021/09/06 00:37:26;;;;;;;7.38;5.68;;;;;;;7.48;62.54;99663.72;5057875;28;20045;-74
2021/09/06 00:39:52;;;;;;;6.25;5.38;;;;;;;7.44;62.85;99651.56;5041295;28;20045;-75
2021/09/06 00:42:18;;;;;;;7.38;5.50;;;;;;;7.44;63.14;99650.72;5057967;28;20051;-74
2021/09/06 00:44:43;;;;;;;6.35;5.10;;;;;;;7.47;62.83;99658.50;5074002;28;20044;-75
2021/09/06 00:47:09;;;;;;;8.43;5.55;;;;;;;7.51;63.02;99665.34;5040960;28;20059;-75
2021/09/06 00:49:35;;;;;;;7.53;5.65;;;;;;;7.42;63.18;99664.13;5057189;28;20098;-75
2021/09/06 00:52:01;;;;;;;6.90;5.25;;;;;;;7.41;63.21;99662.41;5040852;28;20049;-75
2021/09/06 00:54:27;;;;;;;7.88;5.65;;;;;;;7.47;62.91;99659.34;5040729;28;20048;-76
2021/09/06 00:56:53;;;;;;;7.15;5.32;;;;;;;7.43;63.01;99649.88;5073782;28;20099;-75
2021/09/06 00:59:20;;;;;;;7.03;5.82;;;;;;;7.48;63.00;99658.41;5040934;28;20053;-75
2021/09/06 01:01:47;;;;;;;12.13;5.72;;;;;;;7.47;63.06;99659.34;5057548;28;20051;-75
2021/09/06 01:04:14;;;;;;;7.40;5.47;;;;;;;7.50;62.98;99655.66;5057362;28;20047;-74
2021/09/06 01:07:00;;;;;;;8.93;6.53;;;;;;;7.58;63.01;99657.84;5055403;28;20419;-74
2021/09/06 01:09:46;;;;;;;6.93;5.32;;;;;;;7.60;62.91;99659.47;5083794;28;20373;-75
2021/09/06 01:12:30;;;;;;;9.77;5.80;;;;;;;7.58;62.93;99641.88;5028809;28;20570;-75
2021/09/06 01:14:56;;;;;;;8.43;5.47;;;;;;;7.58;62.40;99641.88;5040673;28;20122;-74
2021/09/06 01:17:23;;;;;;;8.40;5.32;;;;;;;7.61;62.16;99647.88;5057328;28;20048;-74
2021/09/06 01:19:51;;;;;;;6.32;4.82;;;;;;;7.67;62.10;99657.25;5041539;28;20059;-74
2021/09/06 01:22:18;;;;;;;10.63;5.90;;;;;;;7.59;61.86;99648.91;5057204;28;20047;-74
2021/09/06 01:25:16;;;;;;;6.40;5.00;;;;;;;7.57;62.02;99661.47;5034593;28;20056;-74
2021/09/06 01:27:43;;;;;;;7.10;5.20;;;;;;;7.55;61.97;99666.84;5024780;28;20051;-75
2021/09/06 01:30:10;;;;;;;6.70;4.75;;;;;;;7.53;61.94;99656.31;5056429;28;20055;-76
2021/09/06 01:32:36;;;;;;;10.25;6.05;;;;;;;7.63;62.07;99677.03;5056624;28;20040;-75
2021/09/06 01:35:03;;;;;;;9.80;5.78;;;;;;;7.65;61.89;99681.31;5023565;28;20095;-75
2021/09/06 01:37:29;;;;;;;6.25;5.22;;;;;;;7.70;61.79;99689.00;5040006;28;20123;-74
2021/09/06 01:39:59;;;;;;;8.20;5.47;;;;;;;7.61;62.05;99657.66;5056690;28;20437;-73
2021/09/06 01:42:26;;;;;;;11.57;5.68;;;;;;;7.74;61.68;99691.34;5055676;28;20051;-73
2021/09/06 01:44:55;;;;;;;7.82;4.82;;;;;;;7.70;61.90;99676.53;5040607;28;20052;-74
2021/09/06 01:47:26;;;;;;;6.85;5.22;;;;;;;7.82;61.55;99696.19;5041225;28;20461;-74
2021/09/06 01:49:52;;;;;;;9.75;5.50;;;;;;;7.87;61.47;99693.28;5056223;28;20048;-74
2021/09/06 01:52:18;;;;;;;11.50;5.70;;;;;;;7.90;61.48;99685.94;5074121;28;20037;-75
2021/09/06 01:54:44;;;;;;;11.45;5.38;;;;;;;7.95;61.09;99697.16;5072552;28;20352;-75
2021/09/06 01:57:11;;;;;;;7.72;5.28;;;;;;;7.96;61.29;99703.31;5055805;28;20469;-74
2021/09/06 01:59:37;;;;;;;7.00;5.22;;;;;;;7.99;61.34;99695.16;5072811;28;20053;-74
2021/09/06 02:02:04;;;;;;;7.25;5.40;;;;;;;7.95;61.32;99686.50;5056096;28;20087;-75
2021/09/06 02:04:37;;;;;;;7.78;5.60;;;;;;;8.10;61.31;99691.81;5056775;28;20055;-75
2021/09/06 02:07:03;;;;;;;7.60;5.93;;;;;;;8.12;61.16;99695.19;5055853;28;20051;-74
2021/09/06 02:09:29;;;;;;;11.45;6.00;;;;;;;8.05;61.28;99684.13;5038899;28;20147;-74
2021/09/06 02:11:56;;;;;;;13.77;6.13;;;;;;;8.14;61.29;99703.97;5072162;28;20044;-76
2021/09/06 02:14:21;;;;;;;11.77;7.40;;;;;;;8.16;61.26;99704.69;5055828;28;20041;-75
2021/09/06 02:16:49;;;;;;;10.90;6.60;;;;;;;8.19;61.33;99708.03;5022984;28;20508;-74
2021/09/06 02:19:35;;;;;;;9.02;5.95;;;;;;;8.23;61.04;99706.03;5044491;28;20051;-75
2021/09/06 02:22:02;;;;;;;10.85;6.07;;;;;;;8.24;61.14;99699.75;5039353;28;20139;-74
2021/09/06 02:24:32;;;;;;;9.20;6.15;;;;;;;8.37;60.78;99715.78;5072579;28;20066;-75
2021/09/06 02:27:03;;;;;;;9.80;6.32;;;;;;;8.30;60.75;99719.81;5041459;28;20054;-74
2021/09/06 02:29:32;;;;;;;;;;;;;;;8.26;61.35;99724.47;5041191;28;20049;-74
2021/09/06 02:32:15;;;;;;;13.65;7.00;;;;;;;8.25;61.13;99704.13;5027951;28;19923;-74
2021/09/06 02:34:59;;;;;;;12.80;6.90;;;;;;;8.40;60.79;99721.81;5045556;28;20056;-74
2021/09/06 02:37:28;;;;;;;12.37;8.50;;;;;;;8.48;60.97;99727.47;5073951;28;20054;-75
2021/09/06 02:39:54;;;;;;;12.38;6.55;;;;;;;8.52;60.76;99722.81;5042027;28;20131;-74
2021/09/06 02:42:21;;;;;;;16.30;7.00;;;;;;;8.50;60.69;99711.41;5028909;28;20045;-73
2021/09/06 02:44:47;;;;;;;19.95;7.95;;;;;;;8.71;60.52;99717.97;5046065;28;20055;-73
2021/09/06 02:47:13;;;;;;;16.17;7.85;;;;;;;8.83;60.27;99708.31;5042912;28;20052;-74
2021/09/06 02:49:39;;;;;;;17.83;7.47;;;;;;;9.01;59.62;99722.22;5046616;28;20112;-75
2021/09/06 02:52:10;;;;;;;19.13;8.13;;;;;;;9.03;59.55;99717.66;5063572;28;20049;-74
2021/09/06 02:54:36;;;;;;;20.15;8.52;;;;;;;9.17;59.36;99724.69;5075222;28;20044;-74
2021/09/06 02:57:03;;;;;;;17.17;8.90;;;;;;;9.23;58.86;99726.94;5055494;28;20084;-74
2021/09/06 02:59:29;;;;;;;18.67;9.00;;;;;;;9.21;58.61;99721.72;5055271;28;20048;-75
2021/09/06 03:01:56;;;;;;;18.15;9.35;;;;;;;9.17;58.75;99722.03;5039382;28;20048;-75
2021/09/06 03:04:22;;;;;;;25.52;11.07;;;;;;;9.14;58.89;99714.22;5072155;28;20067;-75
2021/09/06 03:06:48;;;;;;;15.75;9.25;;;;;;;9.28;59.14;99722.13;5037897;28;20036;-76
2021/09/06 03:09:16;;;;;;;18.13;10.00;;;;;;;9.41;57.89;99711.50;5021892;28;20157;-75
2021/09/06 03:11:43;;;;;;;26.67;13.15;;;;;;;9.55;58.02;99715.84;5038769;28;20407;-75
2021/09/06 03:14:09;;;;;;;20.25;10.30;;;;;;;9.62;57.70;99706.47;5037853;28;20189;-75
2021/09/06 03:16:35;;;;;;;21.30;10.43;;;;;;;9.80;57.53;99710.50;5054367;28;20048;-76
2021/09/06 03:19:01;;;;;;;22.35;10.88;;;;;;;9.89;56.96;99715.22;5021395;28;20392;-75
2021/09/06 03:21:37;;;;;;;26.85;10.95;;;;;;;9.94;56.96;99721.06;5024081;28;20055;-76
2021/09/06 03:24:07;;;;;;;26.10;10.48;;;;;;;10.00;56.83;99724.25;5070979;28;20048;-75
2021/09/06 03:26:33;;;;;;;23.42;10.90;;;;;;;9.97;56.49;99722.66;5038039;28;20602;-76
2021/09/06 03:28:59;;;;;;;29.23;11.93;;;;;;;9.83;56.53;99714.78;5037921;28;20041;-74
2021/09/06 03:31:25;;;;;;;24.58;12.00;;;;;;;9.92;56.66;99722.13;5054215;28;20411;-75
2021/09/06 03:33:54;;;;;;;36.25;11.90;;;;;;;9.92;56.58;99704.28;5037704;28;20049;-76
2021/09/06 03:36:20;;;;;;;27.30;12.52;;;;;;;10.08;56.79;99719.19;5035173;28;20055;-76
2021/09/06 03:38:47;;;;;;;24.20;12.40;;;;;;;10.14;57.03;99718.78;5051736;28;20044;-76
2021/09/06 03:41:14;;;;;;;24.70;12.82;;;;;;;10.21;56.88;99715.53;5051382;28;20056;-76
2021/09/06 03:43:41;;;;;;;28.70;11.23;;;;;;;10.37;56.79;99717.97;5067816;28;20117;-76
2021/09/06 03:46:07;;;;;;;19.63;11.63;;;;;;;10.43;56.73;99697.97;5036442;28;20048;-74
2021/09/06 03:48:35;;;;;;;25.92;11.65;;;;;;;10.65;56.58;99724.84;5061326;28;20055;-77
2021/09/06 03:51:06;;;;;;;18.70;11.85;;;;;;;10.73;56.26;99721.59;5054022;28;20448;-78
2021/09/06 03:53:32;;;;;;;24.83;11.90;;;;;;;10.67;56.17;99706.00;5021539;28;20072;-76
2021/09/06 03:55:58;;;;;;;27.17;10.88;;;;;;;10.81;56.43;99719.19;5021412;28;20182;-75
2021/09/06 03:58:28;;;;;;;23.30;11.65;;;;;;;10.90;56.05;99718.47;5037698;28;20048;-76
2021/09/06 04:00:55;;;;;;;28.23;11.55;;;;;;;10.79;56.10;99731.81;5042869;28;20044;-77
2021/09/06 04:03:21;;;;;;;23.13;10.93;;;;;;;10.66;56.04;99731.88;5053868;28;20048;-76
2021/09/06 04:05:48;;;;;;;18.83;10.82;;;;;;;10.61;55.73;99723.34;5057867;28;20048;-77
2021/09/06 04:08:14;;;;;;;22.85;11.20;;;;;;;10.68;55.82;99723.72;5008624;28;20036;-76
2021/09/06 04:10:41;;;;;;;19.88;11.23;;;;;;;10.82;55.42;99726.22;5041368;28;20048;-77
2021/09/06 04:13:07;;;;;;;17.20;10.50;;;;;;;10.91;55.28;99725.56;5041107;28;20530;-76
2021/09/06 04:15:33;;;;;;;24.58;11.40;;;;;;;10.85;55.02;99717.97;5040868;28;20044;-77
2021/09/06 04:17:59;;;;;;;28.85;11.77;;;;;;;10.92;55.34;99729.94;5057748;28;20041;-76
2021/09/06 04:20:25;;;;;;;22.90;11.93;;;;;;;10.88;55.20;99720.44;5074089;28;20040;-76
2021/09/06 04:22:51;;;;;;;29.77;11.40;;;;;;;10.93;55.22;99723.59;5057661;28;20048;-76
2021/09/06 04:25:18;;;;;;;16.83;10.90;;;;;;;10.91;55.24;99709.50;5041610;28;20048;-75
2021/09/06 04:27:45;;;;;;;39.95;24.33;;;;;;;11.09;54.87;99727.78;5074356;28;20487;-75
2021/09/06 04:30:14;;;;;;;22.00;11.65;;;;;;;11.25;54.81;99728.34;5058286;28;20075;-76
2021/09/06 04:32:42;;;;;;;20.05;11.27;;;;;;;11.36;54.73;99708.78;5025195;28;20048;-76
2021/09/06 04:35:08;;;;;;;26.73;10.95;;;;;;;11.53;54.91;99715.50;5024461;28;20139;-76
2021/09/06 04:37:36;;;;;;;17.90;10.45;;;;;;;11.74;54.59;99727.22;5024615;28;20435;-79
2021/09/06 04:40:06;;;;;;;24.00;9.65;;;;;;;11.81;54.01;99720.41;5058415;28;20058;-76
2021/09/06 04:42:35;;;;;;;27.80;9.13;;;;;;;11.84;53.23;99716.63;5041348;28;20032;-75
2021/09/06 04:45:02;;;;;;;31.95;10.50;;;;;;;11.95;53.13;99715.78;5057277;28;20048;-77
2021/09/06 04:47:29;;;;;;;18.88;9.57;;;;;;;11.90;53.12;99722.38;5041501;28;20491;-75
2021/09/06 04:49:55;;;;;;;15.07;8.95;;;;;;;11.89;53.10;99723.34;5073389;28;20496;-77
2021/09/06 04:52:22;;;;;;;18.95;9.10;;;;;;;11.96;53.23;99723.72;5024322;28;20032;-76
2021/09/06 04:54:49;;;;;;;15.95;8.55;;;;;;;12.04;53.35;99729.31;5040678;28;20487;-76
2021/09/06 04:57:16;;;;;;;15.13;9.35;;;;;;;12.08;53.18;99729.94;5024266;28;20440;-78
2021/09/06 04:59:45;;;;;;;19.67;9.23;;;;;;;12.12;53.02;99718.81;5041336;28;20037;-76
2021/09/06 05:02:11;;;;;;;26.58;9.82;;;;;;;12.14;53.18;99710.66;5057309;28;20410;-75
2021/09/06 05:04:37;;;;;;;15.18;8.77;;;;;;;12.18;53.42;99716.63;5040400;28;20064;-76
2021/09/06 05:07:03;;;;;;;22.00;9.93;;;;;;;12.14;53.12;99708.81;5057076;28;20135;-78
2021/09/06 05:09:29;;;;;;;19.67;9.15;;;;;;;12.39;53.06;99736.34;5056813;28;20549;-75
2021/09/06 05:11:56;;;;;;;18.95;8.65;;;;;;;12.49;53.35;99733.75;5040100;28;20544;-75
2021/09/06 05:14:22;;;;;;;16.08;8.95;;;;;;;12.55;52.78;99736.78;5056682;28;20045;-75
2021/09/06 05:16:48;;;;;;;16.88;10.52;;;;;;;12.70;53.82;99745.38;5039363;28;20462;-76
2021/09/06 05:19:15;;;;;;;24.83;11.68;;;;;;;12.84;53.92;99729.00;5056840;28;20044;-76
2021/09/06 05:21:41;;;;;;;13.20;6.82;;;;;;;13.05;52.87;99715.63;5040424;28;20506;-78
2021/09/06 05:24:08;;;;;;;14.00;6.70;;;;;;;13.28;52.20;99729.81;5040031;28;20499;-75
2021/09/06 05:26:34;;;;;;;12.75;7.15;;;;;;;13.45;51.61;99735.56;5056551;28;20550;-76
2021/09/06 05:29:01;;;;;;;20.52;7.45;;;;;;;13.67;51.46;99735.44;5056709;28;20412;-75
2021/09/06 05:31:28;;;;;;;74.10;47.13;;;;;;;13.75;50.73;99714.13;5040234;28;20086;-76
2021/09/06 05:33:55;;;;;;;7.85;6.30;;;;;;;14.09;50.78;99725.44;5040314;28;20066;-77
2021/09/06 05:36:21;;;;;;;14.48;7.05;;;;;;;14.40;49.71;99727.22;5056253;28;20076;-75
2021/09/06 05:38:47;;;;;;;18.83;8.38;;;;;;;14.63;48.73;99727.88;5056599;28;20048;-76
2021/09/06 05:41:34;;;;;;;9.20;6.07;;;;;;;14.89;48.26;99733.56;5072050;28;20110;-75
2021/09/06 05:44:04;;;;;;;12.50;5.82;;;;;;;15.13;48.08;99731.31;5039688;28;20041;-75
2021/09/06 05:46:31;;;;;;;14.20;7.00;;;;;;;15.25;46.73;99719.41;5072694;28;20045;-75
2021/09/06 05:48:57;;;;;;;14.95;6.72;;;;;;;15.24;46.13;99733.00;5056270;28;20056;-75
2021/09/06 05:51:25;;;;;;;14.80;7.13;;;;;;;15.34;46.48;99735.69;5056207;28;20063;-76
2021/09/06 05:54:05;;;;;;;16.35;6.70;;;;;;;15.14;45.90;99722.25;5041513;28;20049;-77
2021/09/06 05:56:31;;;;;;;14.05;7.05;;;;;;;15.08;46.50;99725.50;5022895;28;20037;-76
2021/09/06 05:59:00;;;;;;;15.90;7.00;;;;;;;15.00;46.49;99719.97;5039374;28;20040;-76
2021/09/06 06:01:28;;;;;;;12.93;8.43;;;;;;;15.13;46.37;99741.25;5039128;28;20071;-75
2021/09/06 06:03:54;;;;;;;15.57;8.00;;;;;;;15.17;46.47;99727.34;5051143;28;20039;-75
2021/09/06 06:06:25;;;;;;;15.75;8.60;;;;;;;15.21;45.92;99727.91;5023197;28;20036;-75
2021/09/06 06:08:56;;;;;;;12.95;7.53;;;;;;;15.20;46.69;99732.44;5055030;28;20052;-75
2021/09/06 06:11:22;;;;;;;11.50;6.50;;;;;;;15.18;45.76;99715.56;5054962;28;20048;-76
2021/09/06 06:13:48;;;;;;;14.68;7.57;;;;;;;15.22;46.22;99721.53;5038795;28;20052;-76
2021/09/06 06:16:16;;;;;;;11.32;7.05;;;;;;;15.28;45.66;99729.88;5039573;28;20045;-76
2021/09/06 06:18:42;;;;;;;11.90;7.72;;;;;;;15.24;45.44;99712.31;5022461;28;20056;-76
2021/09/06 06:21:11;;;;;;;14.52;7.32;;;;;;;15.25;45.69;99719.41;5023297;28;20048;-76
2021/09/06 06:23:52;;;;;;;12.18;7.05;;;;;;;15.40;45.04;99725.19;5072158;28;20427;-76
2021/09/06 06:26:31;;;;;;;9.32;7.13;;;;;;;15.32;45.55;99714.28;5055135;28;20072;-76
2021/09/06 06:28:58;;;;;;;17.85;6.72;;;;;;;15.50;44.78;99714.41;5055552;28;20080;-76
2021/09/06 06:31:25;;;;;;;12.85;7.65;;;;;;;15.40;45.07;99700.94;5039025;28;20051;-75
2021/09/06 06:33:51;;;;;;;14.60;8.52;;;;;;;15.55;45.03;99710.25;5054972;28;20048;-76
2021/09/06 06:36:17;;;;;;;18.42;8.50;;;;;;;15.66;45.12;99697.66;5022059;28;20568;-76
2021/09/06 06:38:44;;;;;;;16.77;8.68;;;;;;;15.91;45.14;99686.22;5055216;28;20127;-76
2021/09/06 06:41:11;;;;;;;18.57;8.60;;;;;;;16.27;43.85;99689.00;5038687;28;20519;-76
2021/09/06 06:43:45;;;;;;;13.55;8.82;;;;;;;16.40;43.15;99685.97;5056739;28;20572;-78
2021/09/06 06:46:14;;;;;;;14.90;9.23;;;;;;;16.40;42.92;99688.66;5039219;28;20071;-75
2021/09/06 06:48:41;;;;;;;23.55;9.00;;;;;;;16.54;43.69;99689.97;5055116;28;20090;-76
2021/09/06 06:51:07;;;;;;;18.70;8.52;;;;;;;16.69;42.21;99694.69;5021934;28;20048;-77
2021/09/06 06:53:41;;;;;;;20.40;8.32;;;;;;;16.69;41.92;99700.09;5040949;28;20047;-76
2021/09/06 06:56:08;;;;;;;16.50;8.27;;;;;;;16.83;41.65;99704.16;5038583;28;20487;-76
2021/09/06 06:58:34;;;;;;;16.05;9.55;;;;;;;16.75;42.21;99702.22;5038504;28;20080;-77
2021/09/06 07:01:07;;;;;;;13.52;7.75;;;;;;;16.75;41.17;99691.41;5024261;28;20045;-76
2021/09/06 07:03:33;;;;;;;16.25;7.18;;;;;;;16.85;40.78;99698.56;5021921;28;20131;-77
2021/09/06 07:05:59;;;;;;;13.18;6.90;;;;;;;17.01;41.61;99685.25;5054783;28;20136;-76
2021/09/06 07:08:25;;;;;;;13.60;6.95;;;;;;;17.18;41.24;99683.50;5038600;28;20116;-76
2021/09/06 07:10:51;;;;;;;12.48;6.78;;;;;;;17.16;40.51;99685.53;5054536;28;20048;-76
2021/09/06 07:13:18;;;;;;;10.88;6.70;;;;;;;17.31;40.25;99678.56;5054616;28;20403;-76
2021/09/06 07:15:44;;;;;;;13.50;6.65;;;;;;;17.63;40.43;99690.59;5021610;28;20040;-75
2021/09/06 07:18:13;;;;;;;10.75;6.15;;;;;;;17.71;39.28;99677.09;5055175;28;20048;-76
2021/09/06 07:20:39;;;;;;;10.77;6.20;;;;;;;18.12;39.30;99686.31;5054608;28;20047;-76
2021/09/06 07:23:05;;;;;;;8.43;5.97;;;;;;;18.46;37.74;99680.00;5037802;28;20052;-76
2021/09/06 07:25:35;;;;;;;7.72;5.30;;;;;;;18.95;37.18;99677.38;5039444;28;20052;-76
2021/09/06 07:28:01;;;;;;;7.10;5.53;;;;;;;19.14;35.88;99684.34;5037982;28;20082;-75
2021/09/06 07:30:27;;;;;;;11.20;5.82;;;;;;;19.19;35.85;99673.00;5037790;28;20052;-75
2021/09/06 07:32:53;;;;;;;12.07;5.53;;;;;;;19.45;35.72;99668.25;5038354;28;20135;-75
2021/09/06 07:35:19;;;;;;;6.30;4.70;;;;;;;19.72;35.66;99674.31;5037997;28;20506;-76
2021/09/06 07:37:45;;;;;;;9.40;5.10;;;;;;;19.67;35.75;99660.41;5054453;28;20123;-75
2021/09/06 07:40:11;;;;;;;8.68;4.78;;;;;;;19.67;35.66;99671.25;5073864;28;20051;-76
2021/09/06 07:42:41;;;;;;;8.70;4.93;;;;;;;19.72;35.83;99677.03;5059051;28;20134;-74
2021/09/06 07:45:08;;;;;;;7.18;4.85;;;;;;;19.62;35.30;99674.50;5041952;28;20123;-76
2021/09/06 07:47:34;;;;;;;12.88;5.53;;;;;;;19.16;35.14;99661.47;5058641;28;20044;-76
2021/09/06 07:50:01;;;;;;;11.98;5.97;;;;;;;19.08;35.79;99666.91;5041874;28;20048;-76
2021/09/06 07:52:27;;;;;;;19.50;6.22;;;;;;;19.30;35.30;99678.94;5041842;28;20052;-76
2021/09/06 07:54:53;;;;;;;13.55;5.70;;;;;;;19.27;34.93;99681.13;5025372;28;20040;-75
2021/09/06 07:57:20;;;;;;;11.82;5.78;;;;;;;19.32;35.55;99682.31;5057919;28;20078;-76
2021/09/06 07:59:46;;;;;;;9.88;6.10;;;;;;;19.61;34.17;99698.03;5041710;28;20071;-75
2021/09/06 08:02:12;;;;;;;9.02;6.10;;;;;;;19.62;34.15;99678.06;5041547;28;20430;-76
2021/09/06 08:04:44;;;;;;;9.43;5.68;;;;;;;18.95;34.71;99701.78;5027143;28;20419;-75
2021/09/06 08:07:10;;;;;;;8.00;5.55;;;;;;;18.13;35.90;99696.13;5057938;28;20123;-76
2021/09/06 08:09:36;;;;;;;7.05;2.30;;;;;;;17.98;35.58;99688.78;5041669;28;20044;-75
2021/09/06 08:12:03;;;;;;;7.43;1.92;;;;;;;17.65;35.49;99694.00;5041295;28;20055;-75
2021/09/06 08:14:29;;;;;;;2.90;1.42;;;;;;;17.44;35.98;99699.75;5057948;28;20037;-75
2021/09/06 08:16:55;;;;;;;1.90;1.67;;;;;;;17.09;37.35;99696.13;5058247;28;20072;-76
2021/09/06 08:19:21;;;;;;;2.33;1.60;;;;;;;17.16;36.93;99708.00;5025034;28;20408;-76
2021/09/06 08:21:50;;;;;;;1.65;1.33;;;;;;;16.83;37.82;99714.09;5074386;28;20045;-76
2021/09/06 08:24:16;;;;;;;1.20;1.10;;;;;;;16.68;38.31;99714.59;5057988;28;20048;-76
2021/09/06 08:26:42;;;;;;;2.78;1.45;;;;;;;16.80;38.05;99698.19;5041039;28;20088;-75
2021/09/06 08:29:09;;;;;;;3.53;1.63;;;;;;;16.87;38.36;99707.38;5041524;28;20131;-76
2021/09/06 08:31:36;;;;;;;3.28;1.20;;;;;;;16.64;39.31;99707.81;5057622;28;20041;-75
2021/09/06 08:34:02;;;;;;;2.15;1.50;;;;;;;16.20;40.24;99704.09;5057416;28;20045;-75
2021/09/06 08:36:28;;;;;;;1.83;1.50;;;;;;;15.91;40.41;99694.31;5024654;28;20055;-76
2021/09/06 08:38:54;;;;;;;1.30;1.20;;;;;;;15.68;40.68;99701.91;5024454;28;20047;-76
2021/09/06 08:41:21;;;;;;;2.03;1.25;;;;;;;15.77;40.97;99706.41;5040802;28;20075;-75
2021/09/06 08:43:47;;;;;;;4.30;1.48;;;;;;;15.91;40.44;99709.59;5057583;28;20094;-76
2021/09/06 08:46:23;;;;;;;7.88;2.13;;;;;;;16.00;40.47;99703.34;5042921;28;20089;-76
2021/09/06 08:48:49;;;;;;;3.33;1.85;;;;;;;16.19;40.13;99697.84;5041274;28;20059;-76
2021/09/06 08:51:16;;;;;;;5.28;1.40;;;;;;;16.14;39.67;99705.56;5024494;28;20040;-76
2021/09/06 08:53:42;;;;;;;1.83;1.23;;;;;;;15.86;39.67;99712.75;5040873;28;20052;-74
2021/09/06 08:56:09;;;;;;;2.17;1.45;;;;;;;15.80;39.82;99729.53;5057515;28;20072;-76
2021/09/06 08:58:36;;;;;;;1.58;1.40;;;;;;;15.72;40.71;99722.19;5008610;28;20147;-75
2021/09/06 09:01:03;;;;;;;1.58;0.98;;;;;;;15.89;39.37;99728.63;5057060;28;20071;-76
2021/09/06 09:03:42;;;;;;;3.65;1.23;;;;;;;15.47;39.72;99736.25;5059095;28;20044;-75
2021/09/06 09:06:36;;;;;;;1.40;1.30;;;;;;;15.13;41.46;99739.41;5048439;28;20075;-76
2021/09/06 09:09:38;;;;;;;1.55;1.30;;;;;;;15.10;41.78;99730.75;5026438;28;20106;-77
2021/09/06 09:12:39;;;;;;;2.80;1.70;;;;;;;15.33;41.49;99725.91;5060366;28;20062;-76
2021/09/06 09:15:16;;;;;;;3.70;1.27;;;;;;;15.31;41.08;99728.75;5042617;28;20507;-76
2021/09/06 09:18:09;;;;;;;3.65;1.50;;;;;;;15.22;41.66;99732.28;5067354;28;20079;-76
2021/09/06 09:21:04;;;;;;;1.98;1.60;;;;;;;15.14;41.61;99718.69;5016742;28;20053;-76
2021/09/06 09:23:48;;;;;;;2.03;1.52;;;;;;;15.32;41.73;99725.06;5058948;28;20131;-77
2021/09/06 09:26:28;;;;;;;2.33;1.50;;;;;;;15.35;41.68;99729.31;5027885;28;20047;-76
2021/09/06 09:29:18;;;;;;;2.30;1.20;;;;;;;15.32;41.20;99735.00;5059253;28;20106;-75
2021/09/06 09:32:03;;;;;;;4.18;1.30;;;;;;;15.19;41.27;99729.88;5029099;28;20052;-76
2021/09/06 09:34:47;;;;;;;1.48;1.17;;;;;;;15.03;41.68;99735.84;5045528;28;20038;-76
2021/09/06 09:37:27;;;;;;;4.97;1.27;;;;;;;14.81;43.07;99742.34;5041826;28;20048;-75
2021/09/06 09:39:58;;;;;;;1.30;1.20;;;;;;;14.74;42.64;99715.16;5056716;28;20122;-76
2021/09/06 09:42:27;;;;;;;2.78;1.40;;;;;;;14.88;43.09;99721.09;5024864;28;20110;-76
2021/09/06 09:44:55;;;;;;;2.50;1.40;;;;;;;15.08;43.15;99728.19;5040223;28;20048;-76
2021/09/06 09:47:33;;;;;;;2.45;2.25;;;;;;;15.52;41.98;99736.66;5028141;28;20072;-76
2021/09/06 09:50:01;;;;;;;4.82;2.65;;;;;;;15.70;42.04;99729.56;5056571;28;20059;-76
2021/09/06 09:52:27;;;;;;;5.78;2.50;;;;;;;16.15;42.08;99734.22;5039902;28;20130;-76
2021/09/06 09:54:54;;;;;;;2.33;2.13;;;;;;;16.64;41.61;99728.56;5056129;28;20067;-77
2021/09/06 09:57:24;;;;;;;2.60;2.40;;;;;;;16.93;40.47;99733.78;5039435;28;20053;-76
2021/09/06 09:59:52;;;;;;;3.13;2.50;;;;;;;16.93;39.96;99729.22;5040634;28;20056;-76
2021/09/06 10:02:29;;;;;;;3.43;2.80;;;;;;;16.79;40.44;99723.50;5072110;28;20040;-76
2021/09/06 10:04:56;;;;;;;4.47;2.33;;;;;;;16.90;41.04;99713.31;5006489;28;20040;-79
2021/09/06 10:07:25;;;;;;;3.78;3.05;;;;;;;17.09;40.24;99711.47;5039345;28;20495;-75
2021/09/06 10:09:52;;;;;;;5.87;3.20;;;;;;;17.13;39.88;99708.28;5069849;28;20211;-75
2021/09/06 10:12:23;;;;;;;12.52;3.75;;;;;;;17.17;39.61;99706.13;5071921;28;20097;-75
2021/09/06 10:15:01;;;;;;;4.20;3.10;;;;;;;17.11;39.64;99704.91;5022768;28;20553;-75
2021/09/06 10:17:44;;;;;;;4.53;3.10;;;;;;;17.14;39.59;99693.78;5056550;28;20047;-78
2021/09/06 10:20:11;;;;;;;6.25;3.10;;;;;;;17.24;38.97;99713.47;5040690;28;20131;-78
2021/09/06 10:22:43;;;;;;;5.53;3.05;;;;;;;17.31;39.28;99710.13;5055398;28;20041;-76
2021/09/06 10:25:18;;;;;;;3.30;3.00;;;;;;;17.38;39.23;99712.06;5007671;28;20051;-75
2021/09/06 10:27:54;;;;;;;7.93;3.13;;;;;;;17.44;39.19;99694.34;5039662;28;20043;-76
2021/09/06 10:30:44;;;;;;;3.67;3.22;;;;;;;17.47;38.47;99685.94;5055835;28;20537;-77
2021/09/06 10:33:37;;;;;;;5.85;3.17;;;;;;;17.73;38.00;99712.97;5087627;28;20048;-80
2021/09/06 10:36:29;;;;;;;8.57;4.20;;;;;;;17.89;38.08;99720.34;5060378;28;20457;-78
2021/09/06 10:39:08;;;;;;;9.82;4.65;;;;;;;17.91;37.72;99723.75;5075075;28;20063;-77
2021/09/06 10:41:48;;;;;;;9.10;4.60;;;;;;;17.84;37.76;99728.94;5092043;28;20058;-77
2021/09/06 10:44:14;;;;;;;7.05;4.30;;;;;;;17.81;37.90;99733.81;5042566;28;20089;-76
2021/09/06 10:46:52;;;;;;;8.38;4.72;;;;;;;17.75;37.75;99734.41;5075579;28;20050;-76
2021/09/06 10:49:31;;;;;;;6.63;4.60;;;;;;;17.86;38.23;99731.47;5077098;28;20059;-76
2021/09/06 10:51:59;;;;;;;7.40;5.00;;;;;;;17.93;37.83;99722.56;5074997;28;20075;-76
2021/09/06 10:54:25;;;;;;;11.10;5.20;;;;;;;18.12;38.07;99726.88;5041770;28;20564;-74
2021/09/06 10:56:52;;;;;;;9.02;5.40;;;;;;;18.54;37.93;99731.47;5058051;28;20088;-76
2021/09/06 10:59:25;;;;;;;8.75;6.03;;;;;;;19.12;37.30;99713.47;5074755;28;20040;-75
2021/09/06 11:01:53;;;;;;;12.60;8.18;;;;;;;19.12;37.04;99722.47;5058255;28;20040;-75
2021/09/06 11:04:27;;;;;;;7.72;5.40;;;;;;;18.59;37.07;99715.56;5058513;28;20132;-77
2021/09/06 11:07:07;;;;;;;7.47;5.80;;;;;;;17.88;37.98;99713.25;5042960;28;20072;-76
2021/09/06 11:09:34;;;;;;;23.48;5.90;;;;;;;17.69;38.91;99720.53;5058024;28;20105;-75
2021/09/06 11:12:04;;;;;;;9.60;6.13;;;;;;;17.50;39.44;99720.75;5071141;28;20052;-79
2021/09/06 11:14:40;;;;;;;;;;;;;;;18.67;38.97;99710.16;5021383;28;20052;-76
2021/09/06 11:17:24;;;;;;;10.73;5.25;;;;;;;20.44;36.33;99699.47;5070581;28;20301;-76
2021/09/06 11:19:51;;;;;;;6.57;5.03;;;;;;;21.72;33.58;99698.88;5038871;28;20083;-76
2021/09/06 11:22:19;;;;;;;7.30;5.15;;;;;;;22.32;32.06;99700.59;5054249;28;20048;-77
2021/09/06 11:24:45;;;;;;;22.90;5.80;;;;;;;22.82;32.35;99704.31;5054286;28;20068;-78
2021/09/06 11:27:35;;;;;;;7.00;4.00;;;;;;;23.36;29.99;99700.28;5038056;28;20047;-80
2021/09/06 11:30:01;;;;;;;3.92;2.60;;;;;;;23.77;28.96;99697.69;5006032;28;20581;-79
2021/09/06 11:32:30;;;;;;;8.00;2.60;;;;;;;23.99;28.54;99685.63;5038458;28;20067;-79
2021/09/06 11:35:05;;;;;;;4.93;2.33;;;;;;;24.05;28.33;99692.19;5037777;28;20040;-78
2021/09/06 11:37:31;;;;;;;2.80;1.77;;;;;;;24.15;27.99;99691.81;5054133;28;20045;-78
2021/09/06 11:39:58;;;;;;;5.70;3.42;;;;;;;24.63;27.74;99691.81;5054255;28;20048;-78
2021/09/06 11:42:26;;;;;;;6.13;1.65;;;;;;;24.63;26.95;99675.41;5070547;28;20481;-78